Time;durP1;ratioP1;P1;durP2;ratioP2;P2;SDS_P1;SDS_P2;PMS_P1;PMS_P2;Temp;Humidity;BMP_temperature;BMP_pressure;BME280_temperature;BME280_humidity;BME280_pressure;Samples;Min_cycle;Max_cycle;Signal;HPM_P1;HPM_P2
2022/12/06 00:01:14;;;;;;;8.65;5.40;;;;;;;-7.70;66.23;101386.84;5025702;28;20042;-66
2022/12/06 00:03:42;;;;;;;8.98;4.50;;;;;;;-7.90;66.24;101367.66;5026745;28;20090;-65
2022/12/06 00:06:13;;;;;;;10.38;5.68;;;;;;;-8.07;67.14;101353.75;5040913;28;20025;-66
2022/12/06 00:08:39;;;;;;;;;;;;;;;-7.93;66.65;101377.47;5041397;28;20203;-65
2022/12/06 00:11:07;;;;;;;8.25;4.60;;;;;;;-7.76;66.34;101376.31;5025920;28;19944;-64
2022/12/06 00:13:34;;;;;;;9.23;4.90;;;;;;;-7.66;66.58;101370.38;5025715;28;20084;-66
2022/12/06 00:16:04;;;;;;;6.22;4.45;;;;;;;-7.62;65.93;101369.88;5027139;28;20042;-64
2022/12/06 00:18:34;;;;;;;8.27;4.97;;;;;;;-7.59;66.63;101362.56;5025121;28;20054;-66
2022/12/06 00:21:16;;;;;;;7.90;5.38;;;;;;;-7.72;66.54;101360.72;5035038;28;20075;-66
2022/12/06 00:23:45;;;;;;;8.07;4.60;;;;;;;-7.72;66.05;101349.78;5036783;28;20026;-66
2022/12/06 00:26:12;;;;;;;10.20;5.18;;;;;;;-7.55;65.41;101367.06;5025263;28;20348;-66
2022/12/06 00:28:38;;;;;;;8.75;5.05;;;;;;;-7.57;65.66;101350.09;5025150;28;20030;-67
2022/12/06 00:31:07;;;;;;;8.98;4.97;;;;;;;-7.63;65.29;101340.44;5044287;28;20038;-64
2022/12/06 00:33:35;;;;;;;8.93;5.50;;;;;;;-7.60;65.86;101348.22;5030146;28;20029;-66
2022/12/06 00:36:07;;;;;;;7.15;4.97;;;;;;;-7.76;65.56;101332.69;5035524;28;20041;-64
2022/12/06 00:38:36;;;;;;;7.07;4.35;;;;;;;-7.52;66.06;101346.31;5038485;28;20298;-65
2022/12/06 00:41:07;;;;;;;7.85;4.63;;;;;;;-7.57;65.70;101355.13;5025062;28;20029;-66
2022/12/06 00:43:33;;;;;;;8.50;5.03;;;;;;;-7.62;65.48;101347.22;5024890;28;20025;-66
2022/12/06 00:46:00;;;;;;;5.57;4.15;;;;;;;-7.66;65.50;101338.56;5043042;28;20033;-66
2022/12/06 00:48:25;;;;;;;8.73;5.30;;;;;;;-7.58;65.33;101345.81;5043565;28;20217;-67
2022/12/06 00:50:51;;;;;;;6.95;4.60;;;;;;;-7.61;66.07;101333.00;5044553;28;20051;-67
2022/12/06 00:53:17;;;;;;;6.28;4.30;;;;;;;-7.61;65.76;101336.38;5040879;28;20225;-67
2022/12/06 00:55:44;;;;;;;8.23;5.35;;;;;;;-7.53;65.85;101335.34;5024705;28;20026;-66
2022/12/06 00:58:10;;;;;;;9.13;5.20;;;;;;;-7.72;65.52;101322.13;5036084;28;20089;-65
2022/12/06 01:00:36;;;;;;;9.55;5.45;;;;;;;-7.87;65.63;101320.13;5024150;28;20036;-65
2022/12/06 01:03:02;;;;;;;8.10;5.20;;;;;;;-7.87;66.15;101327.69;5034761;28;20041;-66
2022/12/06 01:05:29;;;;;;;8.63;4.60;;;;;;;-7.84;65.98;101322.91;5043223;28;20217;-66
2022/12/06 01:07:55;;;;;;;6.35;4.72;;;;;;;-7.88;65.58;101317.50;5044407;28;20025;-66
2022/12/06 01:10:21;;;;;;;10.02;5.20;;;;;;;-7.82;65.41;101321.38;5034556;28;20354;-66
2022/12/06 01:12:46;;;;;;;7.20;4.50;;;;;;;-7.87;65.78;101315.09;5040289;28;20237;-65
2022/12/06 01:15:12;;;;;;;5.53;4.32;;;;;;;-7.95;65.76;101316.16;5038531;28;20033;-66
2022/12/06 01:17:38;;;;;;;11.48;4.90;;;;;;;-7.93;66.35;101316.28;5037224;28;20168;-66
2022/12/06 01:20:04;;;;;;;7.65;4.43;;;;;;;-7.96;66.53;101319.41;5024395;28;20290;-66
2022/12/06 01:22:31;;;;;;;7.68;4.65;;;;;;;-7.86;66.01;101321.03;5037377;28;20029;-66
2022/12/06 01:24:56;;;;;;;10.05;4.85;;;;;;;-7.91;66.27;101317.25;5026779;28;20026;-66
2022/12/06 01:27:22;;;;;;;8.95;4.80;;;;;;;-7.80;66.37;101319.00;5023996;28;20310;-66
2022/12/06 01:29:48;;;;;;;11.23;5.32;;;;;;;-7.78;65.01;101306.53;5032068;28;20037;-65
2022/12/06 01:32:14;;;;;;;7.18;4.45;;;;;;;-7.85;65.58;101297.63;5040346;28;20226;-65
2022/12/06 01:34:39;;;;;;;6.13;4.40;;;;;;;-7.84;66.02;101305.31;5022554;28;20057;-66
2022/12/06 01:37:05;;;;;;;6.95;4.50;;;;;;;-7.84;66.26;101305.31;5042123;28;20033;-66
2022/12/06 01:39:31;;;;;;;6.45;4.47;;;;;;;-7.83;65.64;101299.50;5029766;28;20108;-65
2022/12/06 01:41:57;;;;;;;7.55;5.03;;;;;;;-7.78;66.21;101299.00;5023798;28;20153;-65
2022/12/06 01:44:56;;;;;;;8.73;5.13;;;;;;;-7.93;65.83;101291.13;5028099;28;20033;-67
2022/12/06 01:47:28;;;;;;;8.25;4.78;;;;;;;-7.91;66.28;101298.06;5048832;28;20038;-66
2022/12/06 01:50:01;;;;;;;7.72;4.70;;;;;;;-8.07;65.85;101280.84;5037932;28;20025;-68
2022/12/06 01:52:35;;;;;;;8.82;4.40;;;;;;;-8.34;65.50;101259.44;5043708;28;20029;-67
2022/12/06 01:55:02;;;;;;;6.57;4.53;;;;;;;-7.97;66.30;101300.06;5043896;28;20029;-68
2022/12/06 01:57:29;;;;;;;8.60;4.82;;;;;;;-7.93;66.07;101292.00;5032486;28;20089;-67
2022/12/06 01:59:55;;;;;;;7.07;4.68;;;;;;;-7.82;66.19;101290.34;5043658;28;20260;-67
2022/12/06 02:02:21;;;;;;;9.93;4.95;;;;;;;-7.84;65.78;101284.31;5039354;28;20109;-65
2022/12/06 02:04:47;;;;;;;9.30;5.35;;;;;;;-7.88;65.49;101279.78;5023520;28;20333;-66
2022/12/06 02:07:13;;;;;;;6.40;4.45;;;;;;;-7.92;65.65;101266.13;5023329;28;20030;-65
2022/12/06 02:09:40;;;;;;;8.05;4.30;;;;;;;-7.89;65.61;101262.97;5035514;28;20017;-67
2022/12/06 02:12:14;;;;;;;8.48;4.90;;;;;;;-8.03;65.61;101279.47;5025758;28;20037;-66
2022/12/06 02:14:42;;;;;;;7.95;4.10;;;;;;;-8.08;65.37;101256.50;5029864;28;20290;-66
2022/12/06 02:17:08;;;;;;;7.00;4.35;;;;;;;-8.05;65.52;101269.31;5041037;28;20052;-65
2022/12/06 02:19:40;;;;;;;9.02;4.88;;;;;;;-7.95;65.49;101263.38;5023989;28;20368;-66
2022/12/06 02:22:14;;;;;;;7.72;4.72;;;;;;;-7.88;66.31;101268.13;5033262;28;20314;-66
2022/12/06 02:25:04;;;;;;;10.18;4.97;;;;;;;-7.83;66.40;101264.31;5028254;28;20056;-66
2022/12/06 02:27:43;;;;;;;6.45;4.55;;;;;;;-7.71;66.85;101268.53;5023254;28;20268;-66
2022/12/06 02:30:11;;;;;;;6.30;4.03;;;;;;;-7.60;65.90;101255.16;5033683;28;20217;-67
2022/12/06 02:32:58;;;;;;;7.65;4.57;;;;;;;-7.78;65.50;101218.53;5036705;28;20030;-66
2022/12/06 02:35:39;;;;;;;9.25;4.47;;;;;;;-7.61;66.02;101247.50;5027423;28;20306;-66
2022/12/06 02:38:31;;;;;;;8.60;4.97;;;;;;;-7.75;66.88;101217.16;5041446;28;20021;-66
2022/12/06 02:41:01;;;;;;;9.30;4.90;;;;;;;-7.59;66.10;101236.78;5023092;28;20034;-67
2022/12/06 02:43:51;;;;;;;7.40;4.68;;;;;;;-7.70;65.79;101218.34;5023231;28;20033;-66
2022/12/06 02:46:20;;;;;;;8.52;4.47;;;;;;;-7.71;64.82;101236.75;5042844;28;20336;-66
2022/12/06 02:48:47;;;;;;;7.38;4.68;;;;;;;-7.68;65.49;101241.09;5031492;28;20026;-66
2022/12/06 02:51:16;;;;;;;6.78;4.30;;;;;;;-7.85;65.44;101234.78;5026936;28;20048;-65
2022/12/06 02:53:46;;;;;;;9.13;4.10;;;;;;;-7.78;65.63;101216.03;5033119;28;20064;-66
2022/12/06 02:56:15;;;;;;;6.68;4.60;;;;;;;-7.80;65.50;101239.41;5044446;28;20037;-66
2022/12/06 02:58:41;;;;;;;8.73;5.35;;;;;;;-7.85;65.84;101240.69;5026569;28;20056;-67
2022/12/06 03:01:15;;;;;;;8.52;4.55;;;;;;;-8.09;66.12;101204.47;5026734;28;20026;-66
2022/12/06 03:03:53;;;;;;;7.00;4.35;;;;;;;-7.91;66.60;101234.31;5026498;28;20036;-65
2022/12/06 03:06:40;;;;;;;7.75;4.55;;;;;;;-7.83;65.91;101239.16;5036772;28;20037;-66
2022/12/06 03:09:29;;;;;;;7.03;4.63;;;;;;;-7.85;66.34;101214.66;5046453;28;20033;-66
2022/12/06 03:12:02;;;;;;;8.98;4.90;;;;;;;-7.77;65.64;101215.28;5037578;28;20313;-67
2022/12/06 03:14:39;;;;;;;7.47;5.00;;;;;;;-7.68;65.38;101236.06;5030908;28;20064;-66
2022/12/06 03:17:04;;;;;;;7.07;4.95;;;;;;;-7.54;65.90;101242.16;5045259;28;20029;-66
2022/12/06 03:19:31;;;;;;;9.40;5.45;;;;;;;-7.66;65.15;101242.13;5026382;28;20028;-67
2022/12/06 03:22:00;;;;;;;8.40;5.18;;;;;;;-7.76;65.99;101245.56;5033815;28;20084;-67
2022/12/06 03:24:29;;;;;;;11.88;4.97;;;;;;;-7.77;66.42;101232.88;5038321;28;20026;-66
2022/12/06 03:26:57;;;;;;;7.57;4.70;;;;;;;-8.07;66.02;101207.97;5038111;28;20037;-66
2022/12/06 03:29:27;;;;;;;8.57;4.90;;;;;;;-7.76;65.71;101222.06;5026313;28;20032;-66
2022/12/06 03:31:56;;;;;;;8.00;4.32;;;;;;;-7.69;66.30;101224.28;5025576;28;20027;-66
2022/12/06 03:34:29;;;;;;;6.70;3.80;;;;;;;-7.96;65.96;101201.28;5025949;28;20033;-66
2022/12/06 03:36:55;;;;;;;7.28;4.38;;;;;;;-7.70;65.84;101222.53;5042401;28;20111;-67
2022/12/06 03:39:32;;;;;;;7.50;4.82;;;;;;;-7.68;66.37;101218.47;5034295;28;20034;-66
2022/12/06 03:41:58;;;;;;;7.60;5.05;;;;;;;-7.69;65.77;101212.56;5025912;28;20022;-67
2022/12/06 03:44:25;;;;;;;8.10;4.57;;;;;;;-7.63;65.57;101222.22;5029307;28;20096;-67
2022/12/06 03:47:07;;;;;;;7.57;4.90;;;;;;;-7.66;66.50;101192.69;5045391;28;20037;-66
2022/12/06 03:49:43;;;;;;;8.80;5.15;;;;;;;-7.87;65.48;101188.53;5025546;28;20030;-67
2022/12/06 03:52:09;;;;;;;7.72;5.13;;;;;;;-7.73;65.89;101194.63;5044306;28;20240;-67
2022/12/06 03:54:38;;;;;;;7.72;4.68;;;;;;;-7.67;65.46;101192.56;5045391;28;20017;-67
2022/12/06 03:57:04;;;;;;;6.82;4.57;;;;;;;-7.59;64.57;101194.03;5036603;28;20278;-66
2022/12/06 03:59:30;;;;;;;6.43;4.95;;;;;;;-7.49;65.17;101188.06;5024476;28;20025;-65
2022/12/06 04:01:55;;;;;;;7.60;4.55;;;;;;;-7.61;64.94;101184.63;5025937;28;20021;-66
2022/12/06 04:04:21;;;;;;;7.55;4.97;;;;;;;-7.74;65.28;101188.72;5025856;28;20041;-64
2022/12/06 04:06:47;;;;;;;9.35;4.93;;;;;;;-7.72;66.60;101164.56;5025040;28;20246;-66
2022/12/06 04:11:57;;;;;;;7.07;4.35;;;;;;;-7.67;65.42;101187.53;5033271;28;20026;-66
2022/12/06 04:14:22;;;;;;;8.55;5.07;;;;;;;-7.73;65.15;101184.56;5025163;28;20053;-66
2022/12/06 04:19:37;;;;;;;8.18;4.75;;;;;;;-7.55;65.66;101180.94;5042474;28;20042;-66
2022/12/06 04:24:46;;;;;;;9.70;5.03;;;;;;;-7.78;65.33;101176.69;5039032;28;20021;-67
2022/12/06 04:40:53;;;;;;;7.13;4.53;;;;;;;-7.72;65.46;101171.25;5024751;28;20038;-67
2022/12/06 04:46:02;;;;;;;9.27;4.75;;;;;;;-7.87;66.06;101173.44;5044449;28;20230;-67
2022/12/06 04:48:28;;;;;;;10.60;5.25;;;;;;;-7.92;65.61;101163.06;5032617;28;20072;-66
2022/12/06 04:50:53;;;;;;;7.60;4.82;;;;;;;-7.84;66.23;101168.66;5031234;28;20301;-67
2022/12/06 04:53:19;;;;;;;7.97;4.85;;;;;;;-7.95;65.71;101166.94;5041800;28;20029;-67
2022/12/06 04:55:46;;;;;;;9.70;5.10;;;;;;;-7.85;65.78;101172.81;5026001;28;20070;-69
2022/12/06 04:58:12;;;;;;;8.48;5.10;;;;;;;-7.71;66.22;101173.88;5032357;28;20026;-66
2022/12/06 05:00:42;;;;;;;7.70;5.47;;;;;;;-7.86;65.75;101165.16;5043980;28;20030;-67
2022/12/06 05:03:12;;;;;;;10.02;5.43;;;;;;;-7.73;65.89;101172.00;5035486;28;20033;-67
2022/12/06 05:05:38;;;;;;;8.05;4.85;;;;;;;-7.88;65.22;101166.66;5030143;28;20318;-68
2022/12/06 05:08:05;;;;;;;8.43;5.53;;;;;;;-7.94;65.37;101177.13;5040926;28;20036;-69
2022/12/06 05:10:31;;;;;;;6.72;4.82;;;;;;;-8.09;65.07;101168.41;5035357;28;20036;-67
2022/12/06 05:12:56;;;;;;;7.53;5.10;;;;;;;-8.08;65.65;101160.09;5024075;28;20053;-67
2022/12/06 05:15:22;;;;;;;8.88;5.13;;;;;;;-7.98;65.84;101170.09;5034402;28;20049;-67
2022/12/06 05:17:47;;;;;;;7.38;4.85;;;;;;;-7.90;65.17;101175.75;5037902;28;20038;-67
2022/12/06 05:20:13;;;;;;;7.40;5.05;;;;;;;-7.86;65.66;101171.06;5025461;28;20348;-66
2022/12/06 05:22:40;;;;;;;9.10;5.57;;;;;;;-7.80;65.83;101179.06;5028542;28;20036;-66
2022/12/06 05:25:06;;;;;;;9.20;4.90;;;;;;;-7.73;65.76;101167.84;5040446;28;20025;-66
2022/12/06 05:27:31;;;;;;;10.52;5.13;;;;;;;-7.77;65.57;101167.50;5043154;28;20059;-68
2022/12/06 05:29:57;;;;;;;10.82;6.32;;;;;;;-7.82;65.71;101163.00;5043771;28;20027;-66
2022/12/06 05:32:23;;;;;;;11.15;5.32;;;;;;;-7.75;65.06;101154.28;5041045;28;20033;-67
2022/12/06 05:34:49;;;;;;;8.18;5.47;;;;;;;-7.84;65.61;101156.97;5024555;28;20022;-67
2022/12/06 05:37:15;;;;;;;7.50;4.95;;;;;;;-7.85;66.06;101155.22;5025996;28;20033;-67
2022/12/06 05:39:41;;;;;;;9.30;5.53;;;;;;;-7.85;66.70;101159.34;5023391;28;20025;-66
2022/12/06 05:42:07;;;;;;;8.68;5.00;;;;;;;-7.90;65.91;101153.13;5032043;28;20302;-65
2022/12/06 05:44:32;;;;;;;7.43;5.25;;;;;;;-7.93;65.90;101156.25;5039999;28;20037;-65
2022/12/06 05:46:58;;;;;;;7.75;5.07;;;;;;;-7.83;65.68;101157.84;5023766;28;20030;-66
2022/12/06 05:49:24;;;;;;;8.48;5.18;;;;;;;-7.76;65.61;101156.69;5042522;28;20068;-67
2022/12/06 05:51:49;;;;;;;9.23;5.75;;;;;;;-7.78;66.53;101158.19;5029230;28;20033;-67
2022/12/06 05:54:15;;;;;;;10.38;5.97;;;;;;;-7.77;65.40;101154.94;5032801;28;20202;-66
2022/12/06 05:56:40;;;;;;;8.13;5.28;;;;;;;-7.74;66.04;101148.47;5028754;28;20237;-66
2022/12/06 05:59:06;;;;;;;9.07;5.70;;;;;;;-7.65;66.14;101151.69;5027815;28;20072;-66
2022/12/06 06:01:32;;;;;;;10.02;5.38;;;;;;;-7.64;65.84;101134.97;5023595;28;20097;-67
2022/12/06 06:03:57;;;;;;;8.63;5.90;;;;;;;-7.71;64.69;101136.16;5038115;28;20060;-66
2022/12/06 06:06:23;;;;;;;9.88;6.15;;;;;;;-7.81;65.95;101144.63;5032891;28;20042;-67
2022/12/06 06:08:49;;;;;;;11.32;5.68;;;;;;;-7.88;66.43;101146.56;5023151;28;20037;-68
2022/12/06 06:11:15;;;;;;;12.10;6.03;;;;;;;-7.90;66.34;101146.44;5023228;28;20042;-67
2022/12/06 06:13:40;;;;;;;10.55;5.85;;;;;;;-7.98;65.91;101129.88;5023346;28;20030;-67
2022/12/06 06:16:06;;;;;;;10.32;6.13;;;;;;;-7.69;66.24;101136.28;5039374;28;20036;-66
2022/12/06 06:18:32;;;;;;;10.35;6.07;;;;;;;-8.26;65.78;101091.75;5031728;28;20225;-67
2022/12/06 06:20:59;;;;;;;11.20;5.93;;;;;;;-7.86;66.43;101130.81;5028779;28;20028;-67
2022/12/06 06:23:25;;;;;;;10.57;6.03;;;;;;;-7.88;65.97;101126.44;5024935;28;20033;-67
2022/12/06 06:25:51;;;;;;;11.30;6.50;;;;;;;-7.82;65.27;101132.81;5043379;28;20041;-67
2022/12/06 06:28:17;;;;;;;9.80;5.65;;;;;;;-7.70;67.07;101134.50;5025391;28;20021;-67
2022/12/06 06:30:43;;;;;;;9.27;6.00;;;;;;;-7.86;65.49;101135.00;5035732;28;20053;-66
2022/12/06 06:33:09;;;;;;;8.32;5.45;;;;;;;-7.81;65.79;101139.59;5034931;28;20336;-66
2022/12/06 06:35:36;;;;;;;10.57;6.35;;;;;;;-7.87;65.47;101143.28;5026678;28;20049;-67
2022/12/06 06:38:02;;;;;;;11.23;6.45;;;;;;;-8.20;65.77;101143.31;5042921;28;20056;-67
2022/12/06 06:40:28;;;;;;;10.60;6.35;;;;;;;-8.12;66.57;101131.38;5024080;28;20040;-68
2022/12/06 06:42:55;;;;;;;11.80;6.35;;;;;;;-8.04;65.82;101144.50;5023145;28;20041;-68
2022/12/06 06:45:21;;;;;;;9.90;6.65;;;;;;;-8.00;66.13;101138.97;5032722;28;20032;-67
2022/12/06 06:47:46;;;;;;;11.35;6.25;;;;;;;-7.85;66.26;101147.69;5037742;28;20025;-68
2022/12/06 06:50:12;;;;;;;13.60;6.28;;;;;;;-7.86;65.34;101153.47;5023136;28;20029;-68
2022/12/06 06:52:38;;;;;;;13.35;6.22;;;;;;;-8.00;65.00;101139.81;5026307;28;20029;-67
2022/12/06 06:55:04;;;;;;;12.05;6.85;;;;;;;-7.73;64.74;101146.84;5034668;28;20026;-67
2022/12/06 06:57:29;;;;;;;9.98;6.28;;;;;;;-7.92;65.25;101147.97;5030131;28;20040;-67
2022/12/06 06:59:55;;;;;;;10.30;6.15;;;;;;;-7.70;65.17;101147.06;5023225;28;20026;-68
2022/12/06 07:02:21;;;;;;;8.90;6.40;;;;;;;-7.89;65.30;101145.69;5024140;28;20034;-67
2022/12/06 07:04:48;;;;;;;10.40;6.15;;;;;;;-7.91;65.13;101142.19;5042636;28;20025;-68
2022/12/06 07:07:14;;;;;;;11.63;6.47;;;;;;;-7.84;65.12;101148.53;5025899;28;20089;-69
2022/12/06 07:09:40;;;;;;;10.77;6.03;;;;;;;-7.89;65.44;101145.69;5030739;28;20037;-68
2022/12/06 07:12:06;;;;;;;9.85;6.00;;;;;;;-7.86;65.52;101150.94;5030155;28;20025;-67
2022/12/06 07:14:32;;;;;;;12.00;6.28;;;;;;;-8.05;65.09;101146.16;5040041;28;20334;-67
2022/12/06 07:16:58;;;;;;;10.10;5.85;;;;;;;-7.99;64.85;101140.72;5021965;28;20344;-67
2022/12/06 07:19:24;;;;;;;17.30;7.22;;;;;;;-7.98;65.14;101138.31;5040693;28;20092;-66
2022/12/06 07:21:49;;;;;;;17.67;6.32;;;;;;;-7.97;64.90;101141.69;5034381;28;20052;-67
2022/12/06 07:24:15;;;;;;;12.88;6.40;;;;;;;-7.81;65.71;101141.22;5022618;28;20321;-67
2022/12/06 07:26:41;;;;;;;13.65;6.32;;;;;;;-7.84;65.32;101131.84;5026585;28;20037;-68
2022/12/06 07:29:07;;;;;;;10.98;6.13;;;;;;;-7.96;65.08;101135.94;5042546;28;20245;-66
2022/12/06 07:31:32;;;;;;;10.70;6.28;;;;;;;-7.76;64.95;101134.06;5038483;28;20030;-66
2022/12/06 07:34:00;;;;;;;10.43;6.88;;;;;;;-7.84;64.80;101119.28;5025402;28;20033;-66
2022/12/06 07:36:29;;;;;;;10.38;6.50;;;;;;;-7.60;64.73;101144.50;5036752;28;20317;-66
2022/12/06 07:38:56;;;;;;;8.50;6.25;;;;;;;-7.71;64.52;101125.19;5040320;28;20034;-66
2022/12/06 07:46:57;;;;;;;13.23;7.30;;;;;;;-7.63;65.01;101154.31;5028695;28;20069;-67
2022/12/06 07:49:23;;;;;;;13.48;6.65;;;;;;;-7.77;64.38;101143.22;5032034;28;20029;-67
2022/12/06 07:51:49;;;;;;;10.68;6.40;;;;;;;-7.61;65.13;101145.25;5026550;28;20368;-66
2022/12/06 07:54:16;;;;;;;10.82;6.57;;;;;;;-7.61;64.24;101144.38;5026281;28;20021;-66
2022/12/06 07:56:42;;;;;;;9.98;6.18;;;;;;;-7.46;65.30;101141.38;5029267;28;20025;-67
2022/12/06 07:59:08;;;;;;;9.65;6.35;;;;;;;-7.36;64.13;101147.09;5030754;28;20038;-68
2022/12/06 08:01:34;;;;;;;9.88;5.72;;;;;;;-7.52;63.47;101140.91;5039965;28;20213;-67
2022/12/06 08:04:01;;;;;;;10.65;6.40;;;;;;;-7.41;64.12;101133.28;5029931;28;20109;-67
2022/12/06 08:06:28;;;;;;;10.82;5.97;;;;;;;-7.36;63.14;101139.56;5025751;28;20026;-68
2022/12/06 08:08:54;;;;;;;10.27;5.85;;;;;;;-7.17;62.73;101129.19;5030646;28;20033;-67
2022/12/06 08:11:21;;;;;;;9.00;6.25;;;;;;;-6.84;63.41;101124.84;5028052;28;20041;-68
2022/12/06 08:13:47;;;;;;;12.85;7.38;;;;;;;-6.84;61.79;101125.72;5044959;28;20096;-67
2022/12/06 08:16:13;;;;;;;10.02;6.53;;;;;;;-6.98;62.85;101123.88;5029366;28;20030;-67
2022/12/06 08:18:39;;;;;;;11.55;6.22;;;;;;;-7.07;62.49;101125.69;5036517;28;20026;-68
2022/12/06 08:21:05;;;;;;;13.77;6.45;;;;;;;-7.51;62.38;101116.63;5040542;28;20029;-67
2022/12/06 08:23:31;;;;;;;12.40;6.72;;;;;;;-7.13;63.26;101106.84;5043007;28;20310;-67
2022/12/06 08:26:06;;;;;;;12.82;6.53;;;;;;;-7.31;63.30;101095.44;5025560;28;20064;-66
2022/12/06 08:28:34;;;;;;;11.10;6.85;;;;;;;-6.91;63.22;101113.47;5025030;28;20314;-68
2022/12/06 08:31:05;;;;;;;10.65;6.63;;;;;;;-6.74;62.51;101121.34;5039212;28;20289;-67
2022/12/06 08:33:32;;;;;;;15.95;6.65;;;;;;;-6.71;61.36;101103.91;5034774;28;20038;-66
2022/12/06 08:35:57;;;;;;;11.07;6.90;;;;;;;-6.51;62.46;101096.16;5030757;28;20089;-65
2022/12/06 08:38:23;;;;;;;12.02;6.70;;;;;;;-6.47;61.43;101088.03;5044048;28;20033;-67
2022/12/06 08:40:48;;;;;;;13.50;7.03;;;;;;;-6.37;60.51;101088.66;5024605;28;20022;-67
2022/12/06 08:43:14;;;;;;;11.55;6.63;;;;;;;-6.17;60.09;101079.94;5028134;28;20018;-67
2022/12/06 08:45:40;;;;;;;10.18;6.45;;;;;;;-6.32;60.98;101072.22;5034600;28;20033;-67
2022/12/06 08:48:05;;;;;;;10.68;6.70;;;;;;;-5.97;60.26;101084.69;5030358;28;20079;-66
2022/12/06 08:50:31;;;;;;;10.30;7.13;;;;;;;-6.07;60.27;101079.78;5042486;28;20041;-67
2022/12/06 08:52:57;;;;;;;11.57;6.90;;;;;;;-5.93;58.83;101081.59;5024535;28;20382;-67
2022/12/06 08:55:23;;;;;;;18.55;6.65;;;;;;;-6.07;59.46;101075.66;5024888;28;20029;-65
2022/12/06 08:57:48;;;;;;;14.10;6.60;;;;;;;-6.48;60.50;101076.19;5031981;28;20085;-67
2022/12/06 09:00:15;;;;;;;10.35;6.45;;;;;;;-6.43;59.88;101077.41;5032118;28;20203;-68
2022/12/06 09:02:41;;;;;;;13.13;7.45;;;;;;;-6.27;61.81;101075.91;5041399;28;20084;-67
2022/12/06 09:05:08;;;;;;;14.10;7.22;;;;;;;-6.33;61.16;101081.41;5024885;28;20326;-67
2022/12/06 09:07:33;;;;;;;12.02;7.35;;;;;;;-6.13;61.89;101071.81;5042649;28;20093;-67
2022/12/06 09:09:59;;;;;;;14.10;7.43;;;;;;;-5.92;60.50;101078.28;5030271;28;20026;-67
2022/12/06 09:12:25;;;;;;;14.65;7.75;;;;;;;-5.82;60.38;101057.09;5024456;28;20021;-68
2022/12/06 09:14:51;;;;;;;12.15;7.13;;;;;;;-6.11;58.88;101066.13;5024260;28;20034;-68
2022/12/06 09:17:16;;;;;;;11.70;7.25;;;;;;;-6.08;59.74;101073.03;5024475;28;20029;-66
2022/12/06 09:19:42;;;;;;;12.93;7.40;;;;;;;-6.16;60.50;101066.56;5043349;28;20036;-68
2022/12/06 09:22:08;;;;;;;14.35;7.43;;;;;;;-5.98;59.97;101069.47;5032245;28;20194;-68
2022/12/06 09:24:34;;;;;;;16.02;7.13;;;;;;;-6.22;59.14;101063.66;5033988;28;20097;-68
2022/12/06 09:26:59;;;;;;;11.25;7.07;;;;;;;-6.29;59.58;101059.81;5043842;28;20376;-68
2022/12/06 09:29:25;;;;;;;11.85;7.05;;;;;;;-6.30;60.38;101065.63;5043627;28;20040;-66
2022/12/06 09:31:52;;;;;;;14.23;6.93;;;;;;;-6.18;59.99;101063.09;5024431;28;20108;-68
2022/12/06 09:34:18;;;;;;;16.67;7.82;;;;;;;-6.50;59.31;101072.72;5040553;28;20092;-68
2022/12/06 09:37:07;;;;;;;13.18;7.20;;;;;;;-6.35;60.30;101059.41;5032748;28;20030;-69
2022/12/06 09:39:41;;;;;;;11.10;7.07;;;;;;;-6.83;60.87;101041.84;5032236;28;20049;-67
2022/12/06 09:42:22;;;;;;;15.32;7.78;;;;;;;-6.50;59.83;101067.66;5030192;28;20063;-66
2022/12/06 09:45:06;;;;;;;11.73;7.03;;;;;;;-6.46;60.52;101057.00;5035125;28;20331;-68
2022/12/06 09:47:40;;;;;;;14.50;7.15;;;;;;;-6.54;59.51;101050.59;5025270;28;20596;-67
2022/12/06 09:50:07;;;;;;;12.43;6.63;;;;;;;-6.63;60.49;101044.88;5043831;28;20083;-67
2022/12/06 09:53:15;;;;;;;11.88;7.40;;;;;;;-6.60;59.75;101047.63;5025425;28;20040;-68
2022/12/06 09:55:40;;;;;;;14.77;7.85;;;;;;;-6.28;60.64;101046.47;5037751;28;20362;-68
2022/12/06 09:58:31;;;;;;;15.35;7.88;;;;;;;-6.11;58.98;101048.47;5030142;28;20041;-69
2022/12/06 10:01:15;;;;;;;12.38;6.93;;;;;;;-6.07;58.52;101042.88;5036016;28;20052;-68
2022/12/06 10:03:49;;;;;;;14.00;6.85;;;;;;;-6.30;59.38;101041.31;5032727;28;20048;-68
2022/12/06 10:06:19;;;;;;;14.20;7.10;;;;;;;-6.44;57.73;101022.72;5030457;28;20327;-67
2022/12/06 10:08:59;;;;;;;10.65;6.60;;;;;;;-6.33;58.54;101028.47;5040476;28;20092;-69
2022/12/06 10:11:37;;;;;;;13.63;8.13;;;;;;;-6.38;58.15;101028.94;5023183;28;20033;-68
2022/12/06 10:14:18;;;;;;;12.85;6.63;;;;;;;-6.15;59.77;101033.03;5023673;28;20080;-68
2022/12/06 10:16:58;;;;;;;17.10;7.30;;;;;;;-6.12;58.22;101026.53;5037981;28;20041;-68
2022/12/06 10:19:34;;;;;;;10.43;6.22;;;;;;;-6.22;58.03;101006.53;5026848;28;20330;-67
2022/12/06 10:22:17;;;;;;;13.93;7.60;;;;;;;-6.13;nan;101019.78;5036233;28;20022;-70
2022/12/06 10:24:56;;;;;;;12.82;6.97;;;;;;;-6.14;57.64;101000.38;5033959;28;20037;-67
2022/12/06 10:27:35;;;;;;;14.98;6.55;;;;;;;-6.14;57.26;101022.16;5033834;28;20029;-69
2022/12/06 10:30:07;;;;;;;13.50;6.85;;;;;;;-5.90;57.48;101015.34;5035044;28;20290;-68
2022/12/06 10:32:50;;;;;;;14.65;6.88;;;;;;;-5.96;58.12;101017.47;5023818;28;20033;-67
2022/12/06 10:35:16;;;;;;;9.32;6.32;;;;;;;-5.86;57.89;101012.25;5042160;28;20036;-67
2022/12/06 10:37:53;;;;;;;10.60;6.88;;;;;;;-5.79;57.95;101011.88;5034052;28;20029;-68
2022/12/06 10:40:45;;;;;;;13.23;7.38;;;;;;;-5.85;57.98;100996.34;5031576;28;20025;-66
2022/12/06 10:43:35;;;;;;;11.10;7.00;;;;;;;-5.83;58.21;100993.94;5032022;28;20290;-68
2022/12/06 10:49:10;;;;;;;10.88;6.60;;;;;;;-5.82;56.80;100999.06;5028207;28;20029;-67
2022/12/06 10:51:45;;;;;;;12.38;6.72;;;;;;;-5.72;57.59;100995.50;5033356;28;20030;-67
2022/12/06 10:54:23;;;;;;;12.13;6.13;;;;;;;-5.73;57.00;100982.03;5031157;28;20104;-68
2022/12/06 10:56:52;;;;;;;12.55;6.22;;;;;;;-5.68;55.12;100996.59;5031561;28;20092;-67
2022/12/06 10:59:36;;;;;;;21.58;6.00;;;;;;;-5.91;55.22;100984.22;5037437;28;20321;-67
2022/12/06 11:02:19;;;;;;;12.30;6.25;;;;;;;-5.65;55.92;100994.25;5023177;28;20049;-70
2022/12/06 11:04:47;;;;;;;9.70;6.50;;;;;;;-5.79;56.29;100976.56;5036721;28;20022;-69
2022/12/06 11:07:34;;;;;;;14.73;6.63;;;;;;;-5.75;55.99;100978.50;5033068;28;20092;-68
2022/12/06 11:10:00;;;;;;;15.52;6.40;;;;;;;-5.86;56.09;100984.50;5039029;28;20307;-68
2022/12/06 11:12:33;;;;;;;11.40;6.28;;;;;;;-5.81;54.66;100978.13;5034800;28;20032;-68
2022/12/06 11:15:28;;;;;;;12.70;5.85;;;;;;;-5.72;55.73;100973.66;5042295;28;20045;-68
2022/12/06 11:18:14;;;;;;;11.18;5.93;;;;;;;-5.87;55.58;100972.69;5029965;28;20080;-68
2022/12/06 11:20:52;;;;;;;12.98;5.78;;;;;;;-5.78;55.06;100967.38;5044597;28;20028;-69
2022/12/06 11:23:44;;;;;;;10.52;5.95;;;;;;;-5.72;54.65;100957.66;5026654;28;20120;-69
2022/12/06 11:26:14;;;;;;;10.43;5.85;;;;;;;-5.62;54.26;100975.13;5026773;28;20030;-66
2022/12/06 11:29:13;;;;;;;10.88;5.88;;;;;;;-5.66;55.07;100935.34;5043932;28;20025;-68
2022/12/06 11:31:44;;;;;;;15.00;6.35;;;;;;;-5.52;54.54;100966.50;5042585;28;20321;-69
2022/12/06 11:34:30;;;;;;;9.88;5.63;;;;;;;-5.48;52.86;100976.03;5036358;28;20030;-68
2022/12/06 11:36:58;;;;;;;9.05;5.47;;;;;;;-5.41;54.37;100967.22;5039500;28;20038;-68
2022/12/06 11:39:24;;;;;;;11.73;6.05;;;;;;;-5.51;53.84;100965.75;5037015;28;20026;-68
2022/12/06 11:41:54;;;;;;;14.60;5.70;;;;;;;-5.66;54.17;100942.03;5032297;28;20144;-67
2022/12/06 11:44:24;;;;;;;14.73;6.28;;;;;;;-5.60;55.07;100935.75;5025895;28;20341;-66
2022/12/06 11:46:59;;;;;;;13.85;5.95;;;;;;;-5.45;54.01;100967.78;5026061;28;20030;-68
2022/12/06 11:49:37;;;;;;;10.90;5.25;;;;;;;-5.30;55.16;100958.66;5026603;28;20037;-67
2022/12/06 11:52:10;;;;;;;18.55;6.10;;;;;;;-5.37;54.26;100962.44;5031820;28;20022;-68
2022/12/06 11:54:45;;;;;;;14.93;6.22;;;;;;;-5.45;54.16;100927.41;5034044;28;20037;-71
2022/12/06 11:57:23;;;;;;;8.13;5.10;;;;;;;-5.49;54.58;100950.69;5038656;28;20294;-66
2022/12/06 12:00:07;;;;;;;16.15;5.97;;;;;;;-5.46;53.31;100946.69;5028421;28;20034;-68
2022/12/06 12:02:33;;;;;;;14.77;6.20;;;;;;;-5.44;54.84;100942.63;5045501;28;20266;-68
2022/12/06 12:05:16;;;;;;;11.98;5.22;;;;;;;-5.50;54.19;100946.41;5044567;28;20037;-68
2022/12/06 12:07:46;;;;;;;11.35;5.97;;;;;;;-5.43;54.38;100954.50;5027558;28;20089;-67